Time;durP1;ratioP1;P1;durP2;ratioP2;P2;SDS_P1;SDS_P2;PMS_P1;PMS_P2;Temp;Humidity;BMP_temperature;BMP_pressure;BME280_temperature;BME280_humidity;BME280_pressure;Samples;Min_cycle;Max_cycle;Signal;HPM_P1;HPM_P2
2021/12/10 00:02:12;;;;;;;34.67;10.05;;;-0.40;99.90;;;;;;20670645;28;20035;-76
2021/12/10 00:12:18;;;;;;;25.48;11.10;;;-0.50;99.90;;;;;;20668693;28;20042;-76
2021/12/10 00:22:29;;;;;;;13.07;5.78;;;-0.50;99.90;;;;;;20668533;28;20120;-77
2021/12/10 00:32:35;;;;;;;9.98;4.65;;;-0.80;99.90;;;;;;20668334;28;20035;-77
2021/12/10 00:42:37;;;;;;;11.60;4.82;;;-1.10;99.90;;;;;;20669905;28;20034;-77
2021/12/10 00:52:39;;;;;;;15.25;5.40;;;-0.90;99.90;;;;;;20669388;28;20116;-77
2021/12/10 01:02:40;;;;;;;18.25;6.55;;;-0.80;99.90;;;;;;20673651;28;20038;-77
2021/12/10 01:12:50;;;;;;;13.07;5.68;;;-0.70;99.90;;;;;;20665276;28;20493;-77
2021/12/10 01:33:16;;;;;;;13.95;5.38;;;-1.00;99.90;;;;;;20663898;28;20038;-76
2021/12/10 01:43:24;;;;;;;25.83;8.00;;;-1.00;99.90;;;;;;20660628;28;20026;-76
2021/12/10 01:53:27;;;;;;;23.95;8.43;;;-0.90;99.90;;;;;;20663068;28;20038;-78
2021/12/10 02:03:29;;;;;;;178.55;14.27;;;-1.00;99.90;;;;;;20663579;28;20479;-77
2021/12/10 02:13:30;;;;;;;264.80;19.65;;;-0.90;99.90;;;;;;20664524;28;20027;-77
2021/12/10 02:23:35;;;;;;;340.60;23.65;;;-0.70;99.90;;;;;;20663109;28;20034;-77
2021/12/10 02:33:36;;;;;;;356.15;24.73;;;-0.60;99.90;;;;;;20663474;28;20539;-78
2021/12/10 02:43:37;;;;;;;89.45;20.85;;;-0.50;99.90;;;;;;20663642;28;20037;-76
2021/12/10 02:53:43;;;;;;;191.52;23.77;;;-0.50;99.90;;;;;;20681057;28;20045;-78
2021/12/10 03:03:45;;;;;;;138.75;22.15;;;-0.50;99.90;;;;;;20680949;28;20031;-75
2021/12/10 03:13:46;;;;;;;139.25;20.30;;;-0.40;99.90;;;;;;20681589;28;20106;-77
2021/12/10 03:23:48;;;;;;;91.63;20.40;;;-0.50;99.90;;;;;;20678403;28;20058;-76
2021/12/10 03:33:53;;;;;;;84.40;20.92;;;-0.70;99.90;;;;;;20676676;28;20053;-77
2021/12/10 03:43:54;;;;;;;60.35;19.08;;;-0.70;99.90;;;;;;20675758;28;20030;-76
2021/12/10 03:53:55;;;;;;;97.45;22.45;;;-0.70;99.90;;;;;;20675697;28;20695;-77
2021/12/10 04:03:58;;;;;;;251.20;26.48;;;-0.70;99.90;;;;;;20672574;28;20110;-74
2021/12/10 04:13:59;;;;;;;156.30;21.50;;;-0.70;99.90;;;;;;20669715;28;20042;-75
2021/12/10 04:24:00;;;;;;;100.85;21.67;;;-0.70;99.90;;;;;;20669064;28;20026;-76
2021/12/10 04:34:02;;;;;;;56.53;20.58;;;-0.80;99.90;;;;;;20667225;28;20050;-76
2021/12/10 04:44:04;;;;;;;89.32;20.45;;;-0.70;99.90;;;;;;20667498;28;20042;-74
2021/12/10 04:54:07;;;;;;;135.20;24.23;;;-0.70;99.90;;;;;;20666703;28;20505;-76
2021/12/10 05:04:09;;;;;;;149.20;25.42;;;-0.80;99.90;;;;;;20665924;28;20026;-75
2021/12/10 05:14:11;;;;;;;81.38;21.55;;;-0.80;99.90;;;;;;20665170;28;20057;-77
2021/12/10 05:24:12;;;;;;;77.82;22.35;;;-0.80;99.90;;;;;;20665704;28;20122;-77
2021/12/10 05:34:15;;;;;;;76.72;22.45;;;-0.80;99.90;;;;;;20677647;28;20081;-76
2021/12/10 05:44:16;;;;;;;84.78;23.75;;;-0.80;99.90;;;;;;20664687;28;20030;-76
2021/12/10 05:54:17;;;;;;;83.03;23.92;;;-0.80;99.90;;;;;;20662676;28;20022;-76
2021/12/10 06:04:22;;;;;;;90.47;24.48;;;-0.90;99.90;;;;;;20643410;28;20026;-74
2021/12/10 06:14:23;;;;;;;101.85;24.88;;;-0.80;99.90;;;;;;20596483;28;20449;-76
2021/12/10 06:24:24;;;;;;;99.07;25.13;;;-0.80;99.90;;;;;;20586508;28;20058;-76
2021/12/10 06:34:25;;;;;;;80.38;23.30;;;-0.80;99.90;;;;;;20597557;28;20089;-74
2021/12/10 06:44:26;;;;;;;91.20;21.63;;;-0.80;99.90;;;;;;20596374;28;20058;-75
2021/12/10 06:54:28;;;;;;;94.97;23.35;;;-0.80;99.90;;;;;;20595618;28;20074;-76
2021/12/10 07:04:29;;;;;;;89.80;24.63;;;-0.70;99.90;;;;;;20594682;28;20062;-74
2021/12/10 07:14:31;;;;;;;72.47;22.20;;;-0.70;99.90;;;;;;20594519;28;20042;-75
2021/12/10 07:24:32;;;;;;;75.95;21.60;;;-0.70;99.90;;;;;;20593318;28;20053;-76
2021/12/10 07:34:32;;;;;;;71.35;21.42;;;-0.70;99.90;;;;;;20592317;28;20118;-76
2021/12/10 07:44:35;;;;;;;72.13;21.17;;;-0.70;99.90;;;;;;20590460;28;20031;-76
2021/12/10 07:54:36;;;;;;;75.82;22.48;;;-0.70;99.90;;;;;;20599589;28;20027;-76
2021/12/10 08:04:38;;;;;;;74.10;22.23;;;-0.70;99.90;;;;;;20590255;28;20042;-75
2021/12/10 08:14:39;;;;;;;65.50;18.13;;;-0.60;99.90;;;;;;20595440;28;20381;-75
2021/12/10 08:24:41;;;;;;;53.55;21.02;;;-0.60;99.90;;;;;;20668489;28;20040;-77
2021/12/10 08:34:42;;;;;;;58.10;18.73;;;-0.60;99.90;;;;;;20667908;28;20030;-76
2021/12/10 08:44:45;;;;;;;49.13;17.27;;;-0.40;99.90;;;;;;20589703;28;20063;-75
2021/12/10 08:54:46;;;;;;;44.78;15.20;;;-0.40;99.90;;;;;;20591929;28;20043;-76
2021/12/10 09:04:47;;;;;;;50.85;17.40;;;-0.30;99.90;;;;;;20586900;28;20635;-75
2021/12/10 09:14:52;;;;;;;44.60;17.17;;;-0.30;99.90;;;;;;20585312;28;20106;-75
2021/12/10 09:24:56;;;;;;;40.78;17.13;;;-0.30;99.90;;;;;;20591339;28;20031;-75
2021/12/10 09:35:02;;;;;;;40.00;14.82;;;-0.30;99.90;;;;;;20652771;28;20042;-75
2021/12/10 09:45:06;;;;;;;33.97;13.63;;;-0.30;99.90;;;;;;20616288;28;20117;-74
2021/12/10 09:55:10;;;;;;;32.25;12.82;;;-0.20;99.90;;;;;;20583047;28;20118;-74
2021/12/10 10:05:11;;;;;;;31.08;12.70;;;-0.20;99.90;;;;;;20660310;28;20032;-75
2021/12/10 10:15:18;;;;;;;34.20;15.05;;;-0.10;99.90;;;;;;20661916;28;20088;-74
2021/12/10 10:25:22;;;;;;;30.50;13.20;;;-0.10;99.90;;;;;;20662050;28;20034;-75
2021/12/10 10:35:30;;;;;;;25.70;12.75;;;-0.10;99.90;;;;;;20661328;28;20034;-77
2021/12/10 10:45:34;;;;;;;30.50;13.15;;;-0.10;99.90;;;;;;20661030;28;20489;-73
2021/12/10 10:55:39;;;;;;;30.70;14.45;;;0.00;99.90;;;;;;20660540;28;20460;-74
2021/12/10 11:05:52;;;;;;;27.42;12.98;;;0.00;99.90;;;;;;20650394;28;20502;-74
2021/12/10 11:16:04;;;;;;;28.70;13.75;;;0.10;99.90;;;;;;20593091;28;20537;-74
2021/12/10 11:26:06;;;;;;;25.77;12.57;;;0.10;99.90;;;;;;20596232;28;20029;-73
2021/12/10 11:36:14;;;;;;;22.25;11.07;;;0.20;99.90;;;;;;20673321;28;20081;-75
2021/12/10 11:56:41;;;;;;;18.05;9.98;;;0.40;99.90;;;;;;20649559;28;20085;-76
2021/12/10 12:06:42;;;;;;;20.23;10.95;;;0.80;99.90;;;;;;20627688;28;20081;-74
2021/12/10 12:16:42;;;;;;;23.20;10.60;;;1.10;99.90;;;;;;20649339;28;20034;-73
2021/12/10 12:26:43;;;;;;;34.50;15.82;;;1.10;99.90;;;;;;20648038;28;20157;-75
2021/12/10 12:36:50;;;;;;;19.77;10.73;;;1.30;99.90;;;;;;20666295;28;20026;-76
2021/12/10 12:47:05;;;;;;;27.80;13.38;;;1.30;99.90;;;;;;20667487;28;20027;-76
2021/12/10 12:57:09;;;;;;;48.92;22.48;;;1.50;99.90;;;;;;20649907;28;20042;-76
2021/12/10 13:07:16;;;;;;;20.88;12.60;;;1.60;99.90;;;;;;20652152;28;20549;-75
2021/12/10 13:17:35;;;;;;;12.00;8.02;;;1.70;99.90;;;;;;20642192;28;20041;-77
2021/12/10 13:27:37;;;;;;;9.40;6.30;;;1.70;99.90;;;;;;20588075;28;20031;-77
2021/12/10 13:37:39;;;;;;;35.78;15.27;;;1.50;99.90;;;;;;20587981;28;20034;-76
2021/12/10 13:47:51;;;;;;;53.28;13.45;;;1.50;99.90;;;;;;20586824;28;20035;-77
2021/12/10 13:58:10;;;;;;;54.92;14.52;;;1.20;99.90;;;;;;20586781;28;20738;-76
2021/12/10 14:08:15;;;;;;;17.50;6.53;;;1.00;99.90;;;;;;20588932;28;20117;-76
2021/12/10 14:18:24;;;;;;;16.08;7.70;;;1.00;99.90;;;;;;20598074;28;20057;-77
2021/12/10 14:28:38;;;;;;;20.13;10.38;;;1.10;99.90;;;;;;20586645;28;20524;-74
2021/12/10 14:39:00;;;;;;;18.63;9.10;;;1.10;99.90;;;;;;20607182;28;20031;-74
2021/12/10 14:49:10;;;;;;;17.23;8.85;;;1.10;99.90;;;;;;20632304;28;20109;-76
2021/12/10 14:59:16;;;;;;;14.77;7.38;;;1.20;99.90;;;;;;20638830;28;20394;-76
2021/12/10 15:09:17;;;;;;;14.02;6.93;;;1.40;99.90;;;;;;20641238;28;20508;-77
2021/12/10 15:19:25;;;;;;;12.48;5.68;;;1.30;99.90;;;;;;20675243;28;20034;-76
2021/12/10 15:29:31;;;;;;;22.60;10.73;;;1.30;99.90;;;;;;20674640;28;20034;-76
2021/12/10 15:39:34;;;;;;;15.98;7.65;;;1.50;99.90;;;;;;20675075;28;20062;-76
2021/12/10 15:49:37;;;;;;;5.10;2.40;;;1.50;99.90;;;;;;20673462;28;20046;-75
2021/12/10 15:59:44;;;;;;;6.22;3.67;;;1.80;99.90;;;;;;20672377;28;20069;-74
2021/12/10 16:09:47;;;;;;;3.22;1.90;;;2.10;99.90;;;;;;20675907;28;20030;-74
2021/12/10 16:19:49;;;;;;;3.33;1.50;;;2.40;99.90;;;;;;20669557;28;20045;-77
2021/12/10 16:29:56;;;;;;;2.67;1.45;;;2.60;99.90;;;;;;20657810;28;20497;-76
2021/12/10 16:39:57;;;;;;;3.90;2.28;;;2.60;99.90;;;;;;20622234;28;20050;-77
2021/12/10 16:49:59;;;;;;;3.20;1.70;;;2.60;99.90;;;;;;20645430;28;20049;-75
2021/12/10 17:00:18;;;;;;;4.57;2.03;;;2.70;99.90;;;;;;20641119;28;20031;-74
2021/12/10 17:10:33;;;;;;;3.47;1.65;;;2.70;99.90;;;;;;20645388;28;20501;-77
2021/12/10 17:20:40;;;;;;;5.53;2.08;;;2.70;99.90;;;;;;20653651;28;20034;-76
2021/12/10 17:30:46;;;;;;;6.43;2.03;;;2.80;99.90;;;;;;20629067;28;20047;-77
2021/12/10 17:41:00;;;;;;;6.85;2.28;;;2.70;99.90;;;;;;20637219;28;20046;-75
2021/12/10 17:51:11;;;;;;;6.03;1.75;;;2.60;99.90;;;;;;20636392;28;20125;-77
2021/12/10 18:01:20;;;;;;;3.78;1.90;;;2.70;99.90;;;;;;20663010;28;20083;-75
2021/12/10 18:11:21;;;;;;;9.18;1.73;;;2.70;99.90;;;;;;20666066;28;20041;-78
2021/12/10 18:21:27;;;;;;;9.23;1.98;;;2.60;99.90;;;;;;20643307;28;20446;-78
2021/12/10 18:31:33;;;;;;;8.00;1.70;;;2.50;99.90;;;;;;20608908;28;20089;-76
2021/12/10 18:41:37;;;;;;;5.30;1.88;;;2.60;99.90;;;;;;20596380;28;20113;-74
2021/12/10 18:51:42;;;;;;;6.63;1.65;;;2.80;99.90;;;;;;20595945;28;20035;-74
2021/12/10 19:01:48;;;;;;;8.18;2.38;;;2.70;99.90;;;;;;20595524;28;20030;-74
2021/12/10 19:11:58;;;;;;;8.52;1.77;;;2.70;99.90;;;;;;20594950;28;20597;-76
2021/12/10 19:22:10;;;;;;;7.22;1.50;;;2.80;99.90;;;;;;20593972;28;20038;-77
2021/12/10 19:32:18;;;;;;;6.50;2.10;;;2.70;99.90;;;;;;20641970;28;20022;-75
2021/12/10 19:42:29;;;;;;;9.15;1.58;;;2.80;99.90;;;;;;20634735;28;20044;-75
2021/12/10 19:52:37;;;;;;;4.90;1.42;;;2.70;99.90;;;;;;20631919;28;20030;-76
2021/12/10 20:02:53;;;;;;;10.65;1.63;;;2.70;99.90;;;;;;20630923;28;20026;-75
2021/12/10 20:13:05;;;;;;;10.48;2.17;;;2.80;99.90;;;;;;20637099;28;20030;-76
2021/12/10 20:23:13;;;;;;;6.13;1.67;;;2.70;99.90;;;;;;20628342;28;20120;-75
2021/12/10 20:33:23;;;;;;;6.05;1.80;;;2.70;99.90;;;;;;20645684;28;20034;-76
2021/12/10 20:43:39;;;;;;;5.85;1.95;;;2.50;99.90;;;;;;20622633;28;20177;-76
2021/12/10 20:53:53;;;;;;;4.38;1.38;;;2.50;99.90;;;;;;20619488;28;20050;-75
2021/12/10 21:04:04;;;;;;;5.63;2.08;;;2.40;99.90;;;;;;20618290;28;20405;-75
2021/12/10 21:14:33;;;;;;;8.07;1.93;;;2.30;99.90;;;;;;20619868;28;20034;-76
2021/12/10 21:24:47;;;;;;;5.82;1.52;;;2.40;99.90;;;;;;20622045;28;20050;-76
2021/12/10 21:34:51;;;;;;;9.50;1.92;;;2.50;99.90;;;;;;20629092;28;20026;-74
2021/12/10 21:45:00;;;;;;;13.55;2.42;;;2.60;99.90;;;;;;20616048;28;20093;-76
2021/12/10 21:55:06;;;;;;;11.38;1.65;;;2.50;99.90;;;;;;20587648;28;20027;-75
2021/12/10 22:05:10;;;;;;;4.57;1.58;;;2.50;99.90;;;;;;20587241;28;20097;-75
2021/12/10 22:15:18;;;;;;;9.73;1.85;;;2.50;99.90;;;;;;20586218;28;20041;-76
2021/12/10 22:25:33;;;;;;;9.75;2.50;;;2.50;99.90;;;;;;20585772;28;20070;-76
2021/12/10 22:35:41;;;;;;;6.18;1.80;;;2.50;99.90;;;;;;20584616;28;20122;-76
2021/12/10 22:45:55;;;;;;;17.45;2.67;;;2.60;99.90;;;;;;20584809;28;20697;-76
2021/12/10 22:55:57;;;;;;;9.65;1.70;;;2.60;99.90;;;;;;20582918;28;20472;-76
2021/12/10 23:06:04;;;;;;;7.32;2.13;;;2.50;99.90;;;;;;20588612;28;20034;-76
2021/12/10 23:16:40;;;;;;;10.77;2.08;;;2.50;99.90;;;;;;20599606;28;20371;-76
2021/12/10 23:26:59;;;;;;;6.60;2.38;;;2.50;99.90;;;;;;20567382;28;20513;-75
2021/12/10 23:37:02;;;;;;;7.70;2.60;;;2.40;99.90;;;;;;20599106;28;20038;-77
2021/12/10 23:47:12;;;;;;;8.20;2.28;;;2.30;99.90;;;;;;20596074;28;20652;-76
2021/12/10 23:57:20;;;;;;;14.90;3.13;;;2.20;99.90;;;;;;20593220;28;20034;-76
